AirNav   Everest Fuels
 
 426 users online  

1ID2 Horseshoe Bend Heliport
Horseshoe Bend, Idaho, USA

GOING TO HORSESHOE BEND?


FAA INFORMATION EFFECTIVE 23 MAY 2019

Location

FAA Identifier: 1ID2
Lat/Long: 43-54-52.0000N / 116-11-48.0000W
43-54.866667N / 116-11.800000W
43.9144444 / -116.1966667
(estimated)
Elevation: 2300 ft. / 701 m (estimated)
Variation: 16E (2000)
From city: 20 miles S of HORSESHOE BEND, ID
Time zone: UTC -6 (UTC -7 during Standard Time)
Zip code: 83629

Heliport Operations

Heliport use: Private use. Permission required prior to landing
Activation date: 07/2002
Control tower: no
ARTCC: SALT LAKE CITY CENTER
FSS: BOISE FLIGHT SERVICE STATION
Attendance: UNATNDD
Wind indicator: lighted
Segmented circle: no
Lights: 1900-2330

Nearby radio navigation aids

VOR radial/distance  VOR name  Freq  Var
BOIr342/21.7BOISE VORTAC113.3017E

 
NDB name  Hdg/Dist  Freq  Var  ID
ONTARIO087/35.630513EONO --- -. ---

Heliport Services

Runway Information

Helipad H1

Dimensions: 30 x 30 ft. / 9 x 9 m
Surface: concrete
Runway edge lights: PERI
Traffic pattern: leftleft

Heliport Ownership and Management from official FAA records

Ownership: Publicly-owned
Owner: CITY OF HORSESHOE BEND
112 ADA STREET, PO BOX 246
HORSESHOE BEND, ID 83629
Phone 208-793-2219
Manager: MARY HANSON, MAYOR
112 ADA STREET, PO BOX 246
HORSESHOE BEND, ID 83629
Phone 208-793-2219

Additional Remarks

FOR CD CTC BIG SKY APCH AT 208-364-5860/5861.

Instrument Procedures

There are no published instrument procedures at 1ID2.

Some nearby airports with instrument procedures:

KBOI - Boise Air Terminal/Gowen Field (21 nm S)
KMAN - Nampa Municipal Airport (24 nm SW)
KEUL - Caldwell Industrial Airport (25 nm SW)
KONO - Ontario Municipal Airport (36 nm W)
S87 - Weiser Municipal Airport (37 nm NW)
 
Loc | Ops | Rwys | IFR | FBO | Links
Com | Nav | Svcs | Stats | Notes
Area around 1ID2 (Horseshoe Bend Heliport)
 
Road maps at: MapQuest Bing Google
 
Aerial photo
No photo
 
Sectional chart

 
Airport distance calculator
Flying to Horseshoe Bend Heliport? Find the distance to fly.

From to 1ID2

Sunrise and sunset
Times for 25-May-2019
 Local
(UTC-6)
 Zulu
(UTC)
Morning civil twilight05:3611:36
Sunrise06:1112:11
Sunset21:1303:13
Evening civil twilight21:4703:47

Current date and time
Zulu (UTC)  25-May-2019 10:30:59
Local (UTC-6)  25-May-2019 04:30:59
 
METAR
KBOI 
21nm S 
251021Z 32003KT 8SM FEW003 OVC050 10/09 A2989 RMK AO2 T01000094
KMAN 
24nm SW 
251015Z AUTO 00000KT 10SM OVC060 10/10 A2988 RMK A01
KEUL 
26nm SW 
250956Z AUTO 00000KT 10SM OVC075 10/09 A2989 RMK AO2 SLP116 T01000094
KONO 
36nm W 
250953Z AUTO 00000KT 10SM FEW034 BKN060 OVC080 12/09 A2990 RMK AO2 SLP121 T01170089
TAF
KBOI 
21nm S 
250525Z 2506/2606 VRB06KT P6SM VCSH SCT010 BKN050 FM250900 VRB06KT P6SM BKN010 BKN050 FM251700 14008KT P6SM VCSH BKN050
KEUL 
26nm SW 
250525Z 2506/2606 VRB06KT P6SM VCSH BKN050 FM250900 VRB06KT P6SM SCT020 BKN050 FM251700 14006KT P6SM VCSH BKN050
NOTAMs
Click for the latest NOTAMs
NOTAMs are issued by the DoD/FAA and will open in a separate window not controlled by AirNav.

 

 
 

Would you like to see your business listed on this page?

 If your business provides an interesting product or service to pilots, flight crews, aircraft, or users of the Horseshoe Bend Heliport, you should consider listing it here.  To start the listing process, click on the button below
 
Add a business
 

Other Pages about Horseshoe Bend Heliport

Update a link
 
Copyright © AirNav, LLC. All rights reserved. Privacy Policy  Contact